Valdosta, GA

5:13 PM EST on January 20, 2017 (GMT -0500)
Valdosta Regional | | Change Station
Active Advisory: Small Craft Advisory

Elev 200 ft 30.78 °N, 83.28 °W | Updated 20 minutes ago

Overcast
Overcast
74 °F
Feels Like 74 °F
N
5
Wind Variable Wind from Variable

Today
High -- | Low -- °F
--% Chance of Precip.
Yesterday
High -- | Low -- °F
Precip. -- in
Pressure 29.90 in
Visibility 10.0 miles
Clouds Scattered Clouds 3000 ft
Mostly Cloudy 4700 ft
Overcast 10000 ft
Dew Point 66 °F
Humidity 76%
Rainfall 0.04 in
Snow Depth Not available.
7:30 AM 5:58 PM
Last Quarter, 41% visible
METAR KVLD 202153Z VRB04KT 10SM SCT030 BKN047 OVC100 23/19 A2987 RMK AO2 RAB07E32 SLP123 P0001 T02330189
Pressure 29.90 in
Visibility 10.0 miles
Clouds Scattered Clouds 3000 ft
Mostly Cloudy 4700 ft
Overcast 10000 ft
Dew Point 66 °F
Humidity 76%
Rainfall 0.04 in
Snow Depth Not available.
7:30 AM 5:58 PM
Last Quarter, 41% visible
METAR KVLD 202153Z VRB04KT 10SM SCT030 BKN047 OVC100 23/19 A2987 RMK AO2 RAB07E32 SLP123 P0001 T02330189

Get Your Daily Forecast Email!

Thanks for signing up!

Be on the lookout for a verification email in your inbox.

You'll start receiving the daily forecast at 8 AM.

×

10-Day Weather Forecast

Almanac

Astronomy

Jan. 20, 2017 Rise Set
Actual Time
Civil Twilight
Nautical Twilight
Astronomical Twilight
Moon
Length of Visible Light
Length of Day
Tomorrow will be .
, % of the Moon is Illuminated

Today's Extremes

State Highs State Lows

Community

WunderPhotos

Upload Photos

1,962,540 photos uploaded!

WunderBlog® & News

Nearby

Air Quality

  Air Quality AQ Index Pollutant
Not available.

Snow Depth

Station Depth Elevation

Earthquake Activity

City Distance Mag. Time & Date
Minimum magnitude displayed is 2.5.

Coastal Water Temperatures

Place Temperature

Stations

Nearby Weather Stations

Station Location Temp. Windchill Dew Point Humidity Wind Precip. Elev Updated Type
                   

Watches & Warnings

Small Craft Advisory
Issued: 3:28 PM EST Jan. 20, 2017 – National Weather Service

... Small Craft Advisory in effect from 7 PM Saturday to 7 am EST
Tuesday...

The National Weather Service in Tallahassee has issued a Small
Craft Advisory... which is in effect from 7 PM Saturday to 7 am
EST Tuesday.

* Winds... south 20 to 25 knots Saturday night. West 25 to 30 knots
with gusts to 40 knots possible Sunday night through Monday.

* Waves/seas... 5 to 7 feet Saturday night... 10 to 15 feet with
occasional seas up to 17 feet offshore Sunday night and early
Monday.

Precautionary/preparedness actions...

A Small Craft Advisory means that wind speeds of 20 to 33 knots
are expected to produce hazardous wave conditions to small craft.
Inexperienced mariners... especially those operating smaller
vessels should avoid navigating in these conditions.



Fournier/wool